sensor_id;sensor_type;location;lat;lon;timestamp;pressure;altitude;pressure_sealevel;temperature;humidity
56518;BME280;42419;48.760;2.322;2023-05-11T00:01:40;100901.00;;;21.00;45.29
56518;BME280;42419;48.760;2.322;2023-05-11T00:04:06;100906.34;;;21.00;45.06
56518;BME280;42419;48.760;2.322;2023-05-11T00:06:32;100873.97;;;20.85;44.97
56518;BME280;42419;48.760;2.322;2023-05-11T00:08:57;100909.03;;;21.00;45.20
56518;BME280;42419;48.760;2.322;2023-05-11T00:11:22;100875.84;;;20.83;45.36
56518;BME280;42419;48.760;2.322;2023-05-11T00:13:48;100906.41;;;20.99;44.89
56518;BME280;42419;48.760;2.322;2023-05-11T00:16:13;100900.16;;;20.98;45.11
56518;BME280;42419;48.760;2.322;2023-05-11T00:18:39;100901.97;;;20.98;45.18
56518;BME280;42419;48.760;2.322;2023-05-11T00:21:04;100844.31;;;20.69;45.13
56518;BME280;42419;48.760;2.322;2023-05-11T00:23:30;100902.94;;;20.97;45.12
56518;BME280;42419;48.760;2.322;2023-05-11T00:25:55;100895.75;;;20.97;45.12
56518;BME280;42419;48.760;2.322;2023-05-11T00:28:20;100882.63;;;20.91;45.16
56518;BME280;42419;48.760;2.322;2023-05-11T00:30:46;100889.59;;;20.95;45.09
56518;BME280;42419;48.760;2.322;2023-05-11T00:33:12;100894.03;;;20.96;45.31
56518;BME280;42419;48.760;2.322;2023-05-11T00:35:37;100890.59;;;20.93;45.29
56518;BME280;42419;48.760;2.322;2023-05-11T00:38:02;100900.25;;;20.97;45.11
56518;BME280;42419;48.760;2.322;2023-05-11T00:40:30;100887.81;;;20.96;45.04
56518;BME280;42419;48.760;2.322;2023-05-11T00:42:55;100880.88;;;20.90;45.12
56518;BME280;42419;48.760;2.322;2023-05-11T00:45:21;100876.59;;;20.86;45.15
56518;BME280;42419;48.760;2.322;2023-05-11T00:47:46;100886.94;;;20.95;45.01
56518;BME280;42419;48.760;2.322;2023-05-11T00:50:11;100885.22;;;20.93;45.01
56518;BME280;42419;48.760;2.322;2023-05-11T00:52:37;100884.31;;;20.94;45.00
56518;BME280;42419;48.760;2.322;2023-05-11T00:55:02;100884.44;;;20.91;45.04
56518;BME280;42419;48.760;2.322;2023-05-11T00:57:27;100886.97;;;20.94;45.14
56518;BME280;42419;48.760;2.322;2023-05-11T00:59:55;100877.28;;;20.91;45.08
56518;BME280;42419;48.760;2.322;2023-05-11T01:02:21;100879.03;;;20.92;45.11
56518;BME280;42419;48.760;2.322;2023-05-11T01:04:46;100884.31;;;20.94;45.04
56518;BME280;42419;48.760;2.322;2023-05-11T01:07:23;100883.44;;;20.93;44.97
56518;BME280;42419;48.760;2.322;2023-05-11T01:12:31;100883.44;;;20.93;45.12
56518;BME280;42419;48.760;2.322;2023-05-11T01:15:04;100884.38;;;20.92;45.02
56518;BME280;42419;48.760;2.322;2023-05-11T01:17:37;100862.66;;;20.78;45.03
56518;BME280;42419;48.760;2.322;2023-05-11T01:20:11;100887.06;;;20.92;44.92
56518;BME280;42419;48.760;2.322;2023-05-11T01:31:12;100883.50;;;20.92;45.15
56518;BME280;42419;48.760;2.322;2023-05-11T01:33:44;100881.75;;;20.91;45.02
56518;BME280;42419;48.760;2.322;2023-05-11T01:36:12;100884.44;;;20.91;44.99
56518;BME280;42419;48.760;2.322;2023-05-11T01:38:41;100815.59;;;20.51;44.94
56518;BME280;42419;48.760;2.322;2023-05-11T01:41:17;100867.94;;;20.80;44.69
56518;BME280;42419;48.760;2.322;2023-05-11T01:43:48;100861.84;;;20.76;44.69
56518;BME280;42419;48.760;2.322;2023-05-11T01:46:17;100887.13;;;20.91;44.86
56518;BME280;42419;48.760;2.322;2023-05-11T01:48:48;100878.34;;;20.87;44.99
56518;BME280;42419;48.760;2.322;2023-05-11T01:51:15;100887.13;;;20.91;44.90
56518;BME280;42419;48.760;2.322;2023-05-11T01:53:43;100888.00;;;20.91;44.91
56518;BME280;42419;48.760;2.322;2023-05-11T01:56:10;100861.84;;;20.76;44.89
56518;BME280;42419;48.760;2.322;2023-05-11T01:58:37;100888.00;;;20.91;44.93
56518;BME280;42419;48.760;2.322;2023-05-11T02:01:05;100876.66;;;20.85;44.94
56518;BME280;42419;48.760;2.322;2023-05-11T02:03:34;100834.00;;;20.58;44.83
56518;BME280;42419;48.760;2.322;2023-05-11T02:06:01;100889.78;;;20.91;44.72
56518;BME280;42419;48.760;2.322;2023-05-11T02:08:29;100896.94;;;20.90;44.91
56518;BME280;42419;48.760;2.322;2023-05-11T02:10:57;100896.94;;;20.90;44.66
56518;BME280;42419;48.760;2.322;2023-05-11T02:13:23;100889.84;;;20.89;44.85
56518;BME280;42419;48.760;2.322;2023-05-11T02:15:52;100901.41;;;20.90;44.75
56518;BME280;42419;48.760;2.322;2023-05-11T02:18:20;100904.97;;;20.90;44.99
56518;BME280;42419;48.760;2.322;2023-05-11T02:20:46;100890.91;;;20.85;44.72
56518;BME280;42419;48.760;2.322;2023-05-11T02:23:12;100905.03;;;20.89;44.76
56518;BME280;42419;48.760;2.322;2023-05-11T02:25:39;100899.66;;;20.89;44.67
56518;BME280;42419;48.760;2.322;2023-05-11T02:28:05;100902.34;;;20.89;44.70
56518;BME280;42419;48.760;2.322;2023-05-11T02:30:31;100905.91;;;20.89;44.83
56518;BME280;42419;48.760;2.322;2023-05-11T02:33:04;100880.50;;;20.78;44.61
56518;BME280;42419;48.760;2.322;2023-05-11T02:35:32;100815.06;;;20.41;44.57
56518;BME280;42419;48.760;2.322;2023-05-11T02:37:59;100875.16;;;20.78;44.77
56518;BME280;42419;48.760;2.322;2023-05-11T02:40:30;100897.94;;;20.88;44.59
56518;BME280;42419;48.760;2.322;2023-05-11T02:43:00;100893.56;;;20.85;44.55
56518;BME280;42419;48.760;2.322;2023-05-11T02:45:30;100897.06;;;20.87;44.62
56518;BME280;42419;48.760;2.322;2023-05-11T02:47:57;100891.72;;;20.87;44.70
56518;BME280;42419;48.760;2.322;2023-05-11T02:50:26;100894.41;;;20.87;44.63
56518;BME280;42419;48.760;2.322;2023-05-11T02:52:56;100897.06;;;20.87;44.66
56518;BME280;42419;48.760;2.322;2023-05-11T02:55:22;100892.66;;;20.86;44.59
56518;BME280;42419;48.760;2.322;2023-05-11T02:57:48;100898.00;;;20.86;44.80
56518;BME280;42419;48.760;2.322;2023-05-11T03:00:13;100889.97;;;20.86;44.73
56518;BME280;42419;48.760;2.322;2023-05-11T03:02:39;100870.91;;;20.72;44.73
56518;BME280;42419;48.760;2.322;2023-05-11T03:05:05;100893.53;;;20.87;44.63
56518;BME280;42419;48.760;2.322;2023-05-11T03:07:31;100887.28;;;20.86;45.05
56518;BME280;42419;48.760;2.322;2023-05-11T03:09:57;100883.75;;;20.86;44.61
56518;BME280;42419;48.760;2.322;2023-05-11T03:12:23;100883.00;;;20.82;44.62
56518;BME280;42419;48.760;2.322;2023-05-11T03:14:48;100887.34;;;20.85;44.61
56518;BME280;42419;48.760;2.322;2023-05-11T03:17:15;100888.22;;;20.85;44.58
56518;BME280;42419;48.760;2.322;2023-05-11T03:19:41;100892.69;;;20.85;44.50
56518;BME280;42419;48.760;2.322;2023-05-11T03:22:08;100888.22;;;20.85;44.96
56518;BME280;42419;48.760;2.322;2023-05-11T03:24:34;100885.59;;;20.84;44.62
56518;BME280;42419;48.760;2.322;2023-05-11T03:27:00;100889.16;;;20.84;44.65
56518;BME280;42419;48.760;2.322;2023-05-11T03:29:28;100888.28;;;20.84;44.59
56518;BME280;42419;48.760;2.322;2023-05-11T03:31:55;100882.13;;;20.82;44.91
56518;BME280;42419;48.760;2.322;2023-05-11T03:34:21;100889.16;;;20.84;44.83
56518;BME280;42419;48.760;2.322;2023-05-11T03:36:48;100879.41;;;20.83;44.62
56518;BME280;42419;48.760;2.322;2023-05-11T03:39:18;100874.91;;;20.84;44.63
56518;BME280;42419;48.760;2.322;2023-05-11T03:41:48;100872.44;;;20.79;44.59
56518;BME280;42419;48.760;2.322;2023-05-11T03:44:16;100884.75;;;20.83;44.66
56518;BME280;42419;48.760;2.322;2023-05-11T03:46:44;100879.41;;;20.83;44.91
56518;BME280;42419;48.760;2.322;2023-05-11T03:49:13;100866.50;;;20.71;44.38
56518;BME280;42419;48.760;2.322;2023-05-11T03:51:39;100881.22;;;20.83;44.56
56518;BME280;42419;48.760;2.322;2023-05-11T03:54:05;100876.91;;;20.79;44.56
56518;BME280;42419;48.760;2.322;2023-05-11T03:56:34;100849.75;;;20.66;44.20
56518;BME280;42419;48.760;2.322;2023-05-11T03:59:00;100881.25;;;20.81;44.45
56518;BME280;42419;48.760;2.322;2023-05-11T04:01:26;100874.16;;;20.80;44.48
56518;BME280;42419;48.760;2.322;2023-05-11T04:03:52;100873.22;;;20.81;44.65
56518;BME280;42419;48.760;2.322;2023-05-11T04:06:18;100875.91;;;20.81;44.45
56518;BME280;42419;48.760;2.322;2023-05-11T04:08:43;100875.91;;;20.81;44.49
56518;BME280;42419;48.760;2.322;2023-05-11T04:11:09;100873.28;;;20.80;44.44
56518;BME280;42419;48.760;2.322;2023-05-11T04:13:35;100875.94;;;20.80;44.22
56518;BME280;42419;48.760;2.322;2023-05-11T04:16:00;100875.91;;;20.81;44.41
56518;BME280;42419;48.760;2.322;2023-05-11T04:18:25;100867.88;;;20.81;44.21
56518;BME280;42419;48.760;2.322;2023-05-11T04:20:51;100862.72;;;20.77;44.41
56518;BME280;42419;48.760;2.322;2023-05-11T04:23:16;100872.53;;;20.76;44.54
56518;BME280;42419;48.760;2.322;2023-05-11T04:25:41;100869.75;;;20.79;44.57
56518;BME280;42419;48.760;2.322;2023-05-11T04:28:07;100878.72;;;20.78;44.42
56518;BME280;42419;48.760;2.322;2023-05-11T04:30:32;100869.94;;;20.75;44.55
56518;BME280;42419;48.760;2.322;2023-05-11T04:32:57;100873.38;;;20.78;44.52
56518;BME280;42419;48.760;2.322;2023-05-11T04:35:22;100850.72;;;20.65;44.08
56518;BME280;42419;48.760;2.322;2023-05-11T04:37:49;100848.03;;;20.65;44.39
56518;BME280;42419;48.760;2.322;2023-05-11T04:40:14;100877.78;;;20.79;44.41
56518;BME280;42419;48.760;2.322;2023-05-11T04:42:40;100876.03;;;20.78;44.76
56518;BME280;42419;48.760;2.322;2023-05-11T04:45:06;100883.13;;;20.79;44.34
56518;BME280;42419;48.760;2.322;2023-05-11T04:47:31;100874.28;;;20.77;44.30
56518;BME280;42419;48.760;2.322;2023-05-11T04:49:56;100880.50;;;20.78;44.45
56518;BME280;42419;48.760;2.322;2023-05-11T04:52:22;100882.44;;;20.74;44.45
56518;BME280;42419;48.760;2.322;2023-05-11T04:54:47;100876.03;;;20.78;44.31
56518;BME280;42419;48.760;2.322;2023-05-11T04:57:12;100880.50;;;20.78;44.42
56518;BME280;42419;48.760;2.322;2023-05-11T04:59:37;100878.72;;;20.78;44.27
56518;BME280;42419;48.760;2.322;2023-05-11T05:02:03;100886.75;;;20.78;44.34
56518;BME280;42419;48.760;2.322;2023-05-11T05:04:28;100877.84;;;20.78;44.34
56518;BME280;42419;48.760;2.322;2023-05-11T05:06:53;100880.50;;;20.78;44.36
56518;BME280;42419;48.760;2.322;2023-05-11T05:09:19;100882.44;;;20.74;44.44
56518;BME280;42419;48.760;2.322;2023-05-11T05:11:44;100885.88;;;20.78;44.30
56518;BME280;42419;48.760;2.322;2023-05-11T05:14:10;100892.09;;;20.78;44.08
56518;BME280;42419;48.760;2.322;2023-05-11T05:16:35;100888.53;;;20.78;44.16
56518;BME280;42419;48.760;2.322;2023-05-11T05:19:00;100892.97;;;20.79;44.32
56518;BME280;42419;48.760;2.322;2023-05-11T05:21:26;100894.78;;;20.78;44.54
56518;BME280;42419;48.760;2.322;2023-05-11T05:23:51;100902.78;;;20.78;44.41
56518;BME280;42419;48.760;2.322;2023-05-11T05:26:16;100899.19;;;20.79;44.36
56518;BME280;42419;48.760;2.322;2023-05-11T05:28:41;100902.78;;;20.78;44.33
56518;BME280;42419;48.760;2.322;2023-05-11T05:31:07;100902.78;;;20.78;44.11
56518;BME280;42419;48.760;2.322;2023-05-11T05:33:32;100909.91;;;20.79;44.29
56518;BME280;42419;48.760;2.322;2023-05-11T05:35:57;100904.53;;;20.79;44.32
56518;BME280;42419;48.760;2.322;2023-05-11T05:38:23;100905.47;;;20.78;44.39
56518;BME280;42419;48.760;2.322;2023-05-11T05:40:48;100879.34;;;20.61;43.74
56518;BME280;42419;48.760;2.322;2023-05-11T05:43:13;100914.28;;;20.80;44.55
56518;BME280;42419;48.760;2.322;2023-05-11T05:45:39;100909.06;;;20.77;44.42
56518;BME280;42419;48.760;2.322;2023-05-11T05:48:04;100900.22;;;20.75;44.52
56518;BME280;42419;48.760;2.322;2023-05-11T05:50:31;100909.91;;;20.79;44.59
56518;BME280;42419;48.760;2.322;2023-05-11T05:52:56;100915.03;;;20.84;44.24
56518;BME280;42419;48.760;2.322;2023-05-11T05:55:22;100916.78;;;20.85;44.69
56518;BME280;42419;48.760;2.322;2023-05-11T05:57:48;100901.09;;;20.76;44.84
56518;BME280;42419;48.760;2.322;2023-05-11T06:00:13;100917.63;;;20.87;44.71
56518;BME280;42419;48.760;2.322;2023-05-11T06:02:39;100919.38;;;20.88;44.05
56518;BME280;42419;48.760;2.322;2023-05-11T06:05:06;100924.63;;;20.89;44.52
56518;BME280;42419;48.760;2.322;2023-05-11T06:07:31;100911.53;;;20.83;44.33
56518;BME280;42419;48.760;2.322;2023-05-11T06:09:57;100903.66;;;20.79;44.65
56518;BME280;42419;48.760;2.322;2023-05-11T06:12:23;100926.44;;;20.89;44.61
56518;BME280;42419;48.760;2.322;2023-05-11T06:14:48;100924.75;;;20.86;44.81
56518;BME280;42419;48.760;2.322;2023-05-11T06:17:13;100926.44;;;20.89;44.94
56518;BME280;42419;48.760;2.322;2023-05-11T06:19:38;100923.75;;;20.89;45.19
56518;BME280;42419;48.760;2.322;2023-05-11T06:22:04;100930.91;;;20.88;45.47
56518;BME280;42419;48.760;2.322;2023-05-11T06:24:30;100927.25;;;20.91;45.56
56518;BME280;42419;48.760;2.322;2023-05-11T06:26:55;100928.19;;;20.90;45.59
56518;BME280;42419;48.760;2.322;2023-05-11T06:29:21;100936.09;;;20.93;45.65
56518;BME280;42419;48.760;2.322;2023-05-11T06:31:47;100938.75;;;20.93;45.82
56518;BME280;42419;48.760;2.322;2023-05-11T06:34:19;100935.28;;;20.91;46.15
56518;BME280;42419;48.760;2.322;2023-05-11T06:36:45;100939.63;;;20.93;46.50
56518;BME280;42419;48.760;2.322;2023-05-11T06:39:10;100946.78;;;20.93;46.17
56518;BME280;42419;48.760;2.322;2023-05-11T06:41:35;100946.75;;;20.94;46.35
56518;BME280;42419;48.760;2.322;2023-05-11T06:44:00;100945.88;;;20.94;46.53
56518;BME280;42419;48.760;2.322;2023-05-11T06:46:26;100941.38;;;20.94;46.72
56518;BME280;42419;48.760;2.322;2023-05-11T06:48:51;100938.88;;;20.90;46.93
56518;BME280;42419;48.760;2.322;2023-05-11T06:51:16;100946.75;;;20.94;47.31
56518;BME280;42419;48.760;2.322;2023-05-11T06:53:42;100948.44;;;20.97;48.12
56518;BME280;42419;48.760;2.322;2023-05-11T06:56:07;100941.25;;;20.97;48.76
56518;BME280;42419;48.760;2.322;2023-05-11T06:58:32;100941.25;;;20.97;48.94
56518;BME280;42419;48.760;2.322;2023-05-11T07:00:58;100941.25;;;20.97;49.40
56518;BME280;42419;48.760;2.322;2023-05-11T07:03:23;100953.63;;;21.01;49.33
56518;BME280;42419;48.760;2.322;2023-05-11T07:05:49;100947.38;;;21.01;49.36
56518;BME280;42419;48.760;2.322;2023-05-11T07:08:14;100950.94;;;21.01;49.32
56518;BME280;42419;48.760;2.322;2023-05-11T07:10:39;100948.25;;;21.01;49.50
56518;BME280;42419;48.760;2.322;2023-05-11T07:13:06;100946.41;;;21.02;49.48
56518;BME280;42419;48.760;2.322;2023-05-11T07:15:31;100926.44;;;20.89;49.58
56518;BME280;42419;48.760;2.322;2023-05-11T07:17:56;100947.28;;;21.02;49.40
56518;BME280;42419;48.760;2.322;2023-05-11T07:20:22;100939.44;;;20.98;49.27
56518;BME280;42419;48.760;2.322;2023-05-11T07:22:47;100944.63;;;21.02;49.47
56518;BME280;42419;48.760;2.322;2023-05-11T07:25:13;100949.97;;;21.02;49.35
56518;BME280;42419;48.760;2.322;2023-05-11T07:27:38;100944.63;;;21.02;49.37
56518;BME280;42419;48.760;2.322;2023-05-11T07:30:04;100955.31;;;21.02;48.95
56518;BME280;42419;48.760;2.322;2023-05-11T07:32:29;100939.25;;;21.02;49.42
56518;BME280;42419;48.760;2.322;2023-05-11T07:34:55;100949.97;;;21.02;49.26
56518;BME280;42419;48.760;2.322;2023-05-11T07:37:21;100957.06;;;21.03;49.46
56518;BME280;42419;48.760;2.322;2023-05-11T07:39:46;100948.25;;;21.01;49.45
56518;BME280;42419;48.760;2.322;2023-05-11T07:42:12;100946.38;;;21.03;49.35
56518;BME280;42419;48.760;2.322;2023-05-11T07:44:37;100945.63;;;21.00;49.48
56518;BME280;42419;48.760;2.322;2023-05-11T07:47:02;100937.84;;;20.94;49.40
56518;BME280;42419;48.760;2.322;2023-05-11T07:49:28;100952.66;;;21.02;49.34
56518;BME280;42419;48.760;2.322;2023-05-11T07:51:53;100951.72;;;21.03;49.32
56518;BME280;42419;48.760;2.322;2023-05-11T07:54:18;100949.94;;;21.04;49.41
56518;BME280;42419;48.760;2.322;2023-05-11T07:56:43;100956.16;;;21.04;49.39
56518;BME280;42419;48.760;2.322;2023-05-11T07:59:09;100951.69;;;21.05;49.35
56518;BME280;42419;48.760;2.322;2023-05-11T08:01:34;100955.22;;;21.05;49.07
56518;BME280;42419;48.760;2.322;2023-05-11T08:04:00;100943.69;;;21.03;49.27
56518;BME280;42419;48.760;2.322;2023-05-11T08:06:25;100940.13;;;21.03;49.22
56518;BME280;42419;48.760;2.322;2023-05-11T08:08:50;100949.75;;;21.08;49.60
56518;BME280;42419;48.760;2.322;2023-05-11T08:11:16;100885.22;;;20.71;49.32
56518;BME280;42419;48.760;2.322;2023-05-11T08:13:41;100947.00;;;21.10;49.35
56518;BME280;42419;48.760;2.322;2023-05-11T08:16:07;100946.00;;;21.13;49.38
56518;BME280;42419;48.760;2.322;2023-05-11T08:18:32;100945.94;;;21.14;49.22
56518;BME280;42419;48.760;2.322;2023-05-11T08:20:57;100943.28;;;21.14;49.07
56518;BME280;42419;48.760;2.322;2023-05-11T08:23:23;100910.97;;;20.97;49.16
56518;BME280;42419;48.760;2.322;2023-05-11T08:25:52;100939.63;;;21.17;49.22
56518;BME280;42419;48.760;2.322;2023-05-11T08:28:18;100918.53;;;21.07;49.28
56518;BME280;42419;48.760;2.322;2023-05-11T08:30:44;100920.28;;;21.08;49.17
56518;BME280;42419;48.760;2.322;2023-05-11T08:33:09;100944.84;;;21.20;49.18
56518;BME280;42419;48.760;2.322;2023-05-11T08:35:34;100943.03;;;21.20;49.23
56518;BME280;42419;48.760;2.322;2023-05-11T08:38:00;100945.66;;;21.22;49.37
56518;BME280;42419;48.760;2.322;2023-05-11T08:40:26;100921.22;;;21.07;48.96
56518;BME280;42419;48.760;2.322;2023-05-11T08:42:54;100940.25;;;21.23;49.07
56518;BME280;42419;48.760;2.322;2023-05-11T08:45:20;100941.13;;;21.24;48.94
56518;BME280;42419;48.760;2.322;2023-05-11T08:47:46;100911.34;;;21.09;49.07
56518;BME280;42419;48.760;2.322;2023-05-11T08:50:12;100935.78;;;21.24;48.97
56518;BME280;42419;48.760;2.322;2023-05-11T08:52:38;100933.19;;;21.21;49.03
56518;BME280;42419;48.760;2.322;2023-05-11T08:55:05;100943.66;;;21.27;49.07
56518;BME280;42419;48.760;2.322;2023-05-11T08:57:33;100918.22;;;21.15;49.29
56518;BME280;42419;48.760;2.322;2023-05-11T09:00:00;100940.06;;;21.28;49.31
56518;BME280;42419;48.760;2.322;2023-05-11T09:02:27;100924.25;;;21.22;49.51
56518;BME280;42419;48.760;2.322;2023-05-11T09:04:53;100940.84;;;21.30;49.37
56518;BME280;42419;48.760;2.322;2023-05-11T09:07:18;100926.97;;;21.20;49.49
56518;BME280;42419;48.760;2.322;2023-05-11T09:09:45;100941.72;;;21.30;49.42
56518;BME280;42419;48.760;2.322;2023-05-11T09:12:11;100945.28;;;21.31;49.35
56518;BME280;42419;48.760;2.322;2023-05-11T09:14:37;100946.16;;;21.31;49.49
56518;BME280;42419;48.760;2.322;2023-05-11T09:17:02;100935.50;;;21.30;49.19
56518;BME280;42419;48.760;2.322;2023-05-11T09:19:29;100916.44;;;21.16;49.02
56518;BME280;42419;48.760;2.322;2023-05-11T09:21:55;100933.69;;;21.30;49.13
56518;BME280;42419;48.760;2.322;2023-05-11T09:24:20;100945.16;;;21.34;49.32
56518;BME280;42419;48.760;2.322;2023-05-11T09:26:47;100942.47;;;21.34;49.25
56518;BME280;42419;48.760;2.322;2023-05-11T09:29:12;100940.66;;;21.34;49.37
56518;BME280;42419;48.760;2.322;2023-05-11T09:34:18;100943.28;;;21.36;49.45
56518;BME280;42419;48.760;2.322;2023-05-11T09:36:45;100936.13;;;21.36;49.82
56518;BME280;42419;48.760;2.322;2023-05-11T09:39:12;100936.19;;;21.35;49.45
56518;BME280;42419;48.760;2.322;2023-05-11T09:41:38;100935.16;;;21.37;49.51
56518;BME280;42419;48.760;2.322;2023-05-11T09:44:14;100936.91;;;21.38;49.79
56518;BME280;42419;48.760;2.322;2023-05-11T09:46:41;100935.13;;;21.39;49.65
56518;BME280;42419;48.760;2.322;2023-05-11T09:49:07;100927.09;;;21.39;49.74
56518;BME280;42419;48.760;2.322;2023-05-11T09:51:35;100935.06;;;21.40;49.54
56518;BME280;42419;48.760;2.322;2023-05-11T09:54:02;100931.47;;;21.41;49.57
56518;BME280;42419;48.760;2.322;2023-05-11T09:56:50;100932.44;;;21.39;49.99
56518;BME280;42419;48.760;2.322;2023-05-11T10:02:26;100923.47;;;21.40;49.73
56518;BME280;42419;48.760;2.322;2023-05-11T10:05:10;100909.53;;;21.32;49.84
56518;BME280;42419;48.760;2.322;2023-05-11T10:07:36;100906.78;;;21.33;49.70
56518;BME280;42419;48.760;2.322;2023-05-11T10:10:04;100918.16;;;21.38;49.78
56518;BME280;42419;48.760;2.322;2023-05-11T10:12:30;100919.06;;;21.39;49.81
56518;BME280;42419;48.760;2.322;2023-05-11T10:15:07;100911.94;;;21.38;50.15
56518;BME280;42419;48.760;2.322;2023-05-11T10:17:33;100902.28;;;21.34;49.76
56518;BME280;42419;48.760;2.322;2023-05-11T10:20:00;100897.91;;;21.33;50.14
56518;BME280;42419;48.760;2.322;2023-05-11T10:22:27;100907.53;;;21.37;49.60
56518;BME280;42419;48.760;2.322;2023-05-11T10:24:55;100911.94;;;21.38;49.88
56518;BME280;42419;48.760;2.322;2023-05-11T10:27:21;100911.94;;;21.38;49.82
56518;BME280;42419;48.760;2.322;2023-05-11T10:29:47;100813.44;;;20.82;50.06
56518;BME280;42419;48.760;2.322;2023-05-11T10:32:14;100912.91;;;21.37;49.98
56518;BME280;42419;48.760;2.322;2023-05-11T10:34:41;100910.28;;;21.35;49.84
56518;BME280;42419;48.760;2.322;2023-05-11T10:37:07;100913.75;;;21.37;50.01
56518;BME280;42419;48.760;2.322;2023-05-11T10:39:36;100919.19;;;21.36;49.84
56518;BME280;42419;48.760;2.322;2023-05-11T10:42:13;100910.28;;;21.35;49.51
56518;BME280;42419;48.760;2.322;2023-05-11T10:48:00;100912.22;;;21.32;49.11
56518;BME280;42419;48.760;2.322;2023-05-11T10:53:09;100911.47;;;21.28;49.29
56518;BME280;42419;48.760;2.322;2023-05-11T10:55:59;100913.34;;;21.26;49.41
56518;BME280;42419;48.760;2.322;2023-05-11T11:01:29;100916.06;;;21.25;49.29
56518;BME280;42419;48.760;2.322;2023-05-11T11:04:02;100906.31;;;21.24;49.25
56518;BME280;42419;48.760;2.322;2023-05-11T11:06:30;100889.81;;;21.11;49.16
56518;BME280;42419;48.760;2.322;2023-05-11T11:09:15;100881.88;;;21.09;49.36
56518;BME280;42419;48.760;2.322;2023-05-11T11:11:45;100905.53;;;21.20;49.20
56518;BME280;42419;48.760;2.322;2023-05-11T11:14:12;100902.00;;;21.20;49.31
56518;BME280;42419;48.760;2.322;2023-05-11T11:16:39;100887.97;;;21.13;49.14
56518;BME280;42419;48.760;2.322;2023-05-11T11:19:34;100898.47;;;21.19;49.02
56518;BME280;42419;48.760;2.322;2023-05-11T11:22:00;100900.28;;;21.19;49.03
56518;BME280;42419;48.760;2.322;2023-05-11T11:27:07;100899.47;;;21.17;49.15
56518;BME280;42419;48.760;2.322;2023-05-11T11:29:38;100897.72;;;21.16;49.15
56518;BME280;42419;48.760;2.322;2023-05-11T11:34:48;100858.53;;;20.91;49.25
56518;BME280;42419;48.760;2.322;2023-05-11T11:37:14;100887.34;;;21.06;49.24
56518;BME280;42419;48.760;2.322;2023-05-11T11:42:13;100827.97;;;20.75;49.06
56518;BME280;42419;48.760;2.322;2023-05-11T11:44:40;100895.97;;;21.15;49.32
56518;BME280;42419;48.760;2.322;2023-05-11T11:47:10;100895.06;;;21.14;49.40
56518;BME280;42419;48.760;2.322;2023-05-11T11:49:39;100881.88;;;21.09;49.18
56518;BME280;42419;48.760;2.322;2023-05-11T11:52:09;100889.72;;;21.14;49.50
56518;BME280;42419;48.760;2.322;2023-05-11T11:54:36;100883.59;;;21.10;49.11
56518;BME280;42419;48.760;2.322;2023-05-11T11:57:02;100882.66;;;21.12;49.10
56518;BME280;42419;48.760;2.322;2023-05-11T11:59:29;100888.94;;;21.10;49.10
56518;BME280;42419;48.760;2.322;2023-05-11T12:01:55;100883.59;;;21.10;48.83
56518;BME280;42419;48.760;2.322;2023-05-11T12:04:37;100887.16;;;21.11;48.77
56518;BME280;42419;48.760;2.322;2023-05-11T12:07:06;100887.25;;;21.09;48.95
56518;BME280;42419;48.760;2.322;2023-05-11T12:09:33;100886.28;;;21.10;48.94
56518;BME280;42419;48.760;2.322;2023-05-11T12:12:01;100879.22;;;21.09;49.00
56518;BME280;42419;48.760;2.322;2023-05-11T12:14:26;100879.22;;;21.09;48.85
56518;BME280;42419;48.760;2.322;2023-05-11T12:17:02;100883.75;;;21.07;48.82
56518;BME280;42419;48.760;2.322;2023-05-11T12:19:28;100879.25;;;21.08;48.81
56518;BME280;42419;48.760;2.322;2023-05-11T12:21:54;100880.13;;;21.08;48.91
56518;BME280;42419;48.760;2.322;2023-05-11T12:24:20;100883.69;;;21.09;48.95
56518;BME280;42419;48.760;2.322;2023-05-11T12:26:45;100883.69;;;21.09;48.77
56518;BME280;42419;48.760;2.322;2023-05-11T12:29:13;100887.25;;;21.09;48.92
56518;BME280;42419;48.760;2.322;2023-05-11T12:31:40;100885.50;;;21.08;48.85
56518;BME280;42419;48.760;2.322;2023-05-11T12:34:06;100881.00;;;21.09;49.21
56518;BME280;42419;48.760;2.322;2023-05-11T12:36:37;100875.56;;;21.10;48.85
56518;BME280;42419;48.760;2.322;2023-05-11T12:39:03;100863.44;;;21.02;48.81
56518;BME280;42419;48.760;2.322;2023-05-11T12:41:29;100873.75;;;21.11;48.85
56518;BME280;42419;48.760;2.322;2023-05-11T12:43:54;100877.31;;;21.12;48.93
56518;BME280;42419;48.760;2.322;2023-05-11T12:46:20;100877.31;;;21.12;48.82
56518;BME280;42419;48.760;2.322;2023-05-11T12:48:46;100873.75;;;21.11;48.80
56518;BME280;42419;48.760;2.322;2023-05-11T12:51:13;100876.38;;;21.13;48.92
56518;BME280;42419;48.760;2.322;2023-05-11T12:53:39;100874.59;;;21.13;48.76
56518;BME280;42419;48.760;2.322;2023-05-11T12:56:05;100878.13;;;21.14;48.64
56518;BME280;42419;48.760;2.322;2023-05-11T12:58:38;100853.59;;;21.02;48.69
56518;BME280;42419;48.760;2.322;2023-05-11T13:01:04;100870.09;;;21.14;48.76
56518;BME280;42419;48.760;2.322;2023-05-11T13:03:31;100873.66;;;21.14;48.67
56518;BME280;42419;48.760;2.322;2023-05-11T13:06:10;100870.97;;;21.14;48.67
56518;BME280;42419;48.760;2.322;2023-05-11T13:08:37;100874.53;;;21.15;48.64
56518;BME280;42419;48.760;2.322;2023-05-11T13:11:22;100870.03;;;21.15;48.80
56518;BME280;42419;48.760;2.322;2023-05-11T13:13:53;100851.69;;;21.06;48.59
56518;BME280;42419;48.760;2.322;2023-05-11T13:16:27;100869.19;;;21.15;48.41
56518;BME280;42419;48.760;2.322;2023-05-11T13:18:59;100867.34;;;21.15;48.63
56518;BME280;42419;48.760;2.322;2023-05-11T13:21:25;100835.75;;;21.03;48.21
56518;BME280;42419;48.760;2.322;2023-05-11T13:23:51;100846.25;;;21.07;48.25